Time;durP1;ratioP1;P1;durP2;ratioP2;P2;SDS_P1;SDS_P2;PMS_P1;PMS_P2;Temp;Humidity;BMP_temperature;BMP_pressure;BME280_temperature;BME280_humidity;BME280_pressure;Samples;Min_cycle;Max_cycle;Signal;HPM_P1;HPM_P2
2022/12/24 00:00:32;;;;;;;13.57;2.38;;;11.60;90.60;;;;;;5119635;28;20034;-74
2022/12/24 00:02:58;;;;;;;11.88;1.98;;;11.60;90.60;;;;;;5136406;28;20100;-75
2022/12/24 00:05:24;;;;;;;16.70;3.03;;;11.60;90.70;;;;;;5136529;28;20028;-74
2022/12/24 00:07:50;;;;;;;16.45;3.42;;;11.60;90.70;;;;;;5136425;28;20031;-74
2022/12/24 00:10:15;;;;;;;17.58;3.70;;;11.60;90.70;;;;;;5136298;28;20049;-74
2022/12/24 00:12:41;;;;;;;14.77;2.75;;;11.60;90.80;;;;;;5136310;28;20087;-74
2022/12/24 00:15:07;;;;;;;15.23;3.25;;;11.60;90.90;;;;;;5136271;28;20035;-74
2022/12/24 00:17:33;;;;;;;16.35;2.53;;;11.50;90.70;;;;;;5119017;28;20054;-74
2022/12/24 00:19:59;;;;;;;15.15;2.72;;;11.50;90.90;;;;;;5136100;28;20028;-74
2022/12/24 00:22:24;;;;;;;20.02;2.90;;;11.50;91.00;;;;;;5119067;28;20062;-74
2022/12/24 00:24:50;;;;;;;14.27;2.63;;;11.50;91.10;;;;;;5102115;28;20027;-74
2022/12/24 00:27:16;;;;;;;16.50;3.03;;;11.40;91.10;;;;;;5118977;28;20020;-74
2022/12/24 00:29:41;;;;;;;18.65;2.83;;;11.50;91.30;;;;;;5136939;28;20031;-74
2022/12/24 00:32:09;;;;;;;22.42;3.53;;;11.40;91.20;;;;;;5135912;28;20057;-75
2022/12/24 00:34:38;;;;;;;12.50;2.45;;;11.40;91.30;;;;;;5136018;28;20020;-74
2022/12/24 00:37:04;;;;;;;14.88;2.50;;;11.40;91.30;;;;;;5135808;28;20030;-74
2022/12/24 00:39:30;;;;;;;14.43;2.60;;;11.40;91.30;;;;;;5136025;28;20087;-74
2022/12/24 00:41:56;;;;;;;16.35;2.38;;;11.40;91.40;;;;;;5135794;28;20023;-74
2022/12/24 00:44:21;;;;;;;10.55;2.15;;;11.50;91.40;;;;;;5118638;28;20482;-74
2022/12/24 00:46:47;;;;;;;12.77;2.72;;;11.40;91.40;;;;;;5134873;28;20043;-74
2022/12/24 00:49:13;;;;;;;14.23;2.63;;;11.50;91.60;;;;;;5135701;28;20037;-74
2022/12/24 00:51:38;;;;;;;19.38;2.88;;;11.40;91.50;;;;;;5136396;28;20027;-74
2022/12/24 00:54:05;;;;;;;21.40;3.30;;;11.50;91.60;;;;;;5118452;28;20024;-74
2022/12/24 00:56:31;;;;;;;14.48;2.83;;;11.50;91.60;;;;;;5135412;28;20019;-74
2022/12/24 00:58:56;;;;;;;21.80;4.00;;;11.40;91.60;;;;;;5135442;28;20043;-75
2022/12/24 01:01:23;;;;;;;20.30;3.70;;;11.40;91.60;;;;;;5136344;28;20057;-74
2022/12/24 01:03:50;;;;;;;13.45;2.97;;;11.50;91.60;;;;;;5136324;28;20024;-74
2022/12/24 01:06:20;;;;;;;25.00;4.10;;;11.50;91.60;;;;;;5136275;28;20551;-74
2022/12/24 01:08:50;;;;;;;17.95;3.55;;;11.50;91.30;;;;;;5136294;28;20032;-74
2022/12/24 01:11:16;;;;;;;21.98;3.78;;;11.40;91.40;;;;;;5135119;28;20026;-74
2022/12/24 01:13:41;;;;;;;13.02;3.42;;;11.40;91.40;;;;;;5136269;28;20023;-74
2022/12/24 01:16:19;;;;;;;19.00;3.22;;;11.40;91.40;;;;;;5134848;28;20055;-74
2022/12/24 01:18:45;;;;;;;20.05;3.30;;;11.40;91.20;;;;;;5135252;28;20087;-74
2022/12/24 01:21:12;;;;;;;17.15;2.90;;;11.40;90.90;;;;;;5135059;28;20042;-74
2022/12/24 01:23:37;;;;;;;13.52;2.53;;;11.40;91.00;;;;;;5135905;28;20027;-74
2022/12/24 01:26:04;;;;;;;17.20;3.03;;;11.40;90.70;;;;;;5135839;28;20031;-74
2022/12/24 01:28:30;;;;;;;12.18;2.28;;;11.40;90.90;;;;;;5135555;28;20031;-74
2022/12/24 01:30:56;;;;;;;16.00;2.72;;;11.40;90.80;;;;;;5135701;28;20078;-74
2022/12/24 01:33:22;;;;;;;13.45;3.55;;;11.40;90.60;;;;;;5135696;28;20032;-74
2022/12/24 01:35:47;;;;;;;19.45;3.55;;;11.40;90.70;;;;;;5117674;28;20035;-74
2022/12/24 01:38:13;;;;;;;22.15;3.20;;;11.50;90.80;;;;;;5135693;28;20019;-74
2022/12/24 01:43:28;;;;;;;15.20;2.63;;;11.50;90.50;;;;;;5135800;28;20030;-74
2022/12/24 01:45:59;;;;;;;11.48;2.63;;;11.50;90.60;;;;;;5134470;28;20053;-74
2022/12/24 01:48:45;;;;;;;15.00;3.83;;;11.40;90.30;;;;;;5134442;28;20069;-75
2022/12/24 01:51:38;;;;;;;20.27;3.67;;;11.40;90.40;;;;;;5134319;28;20027;-75
2022/12/24 01:54:22;;;;;;;15.45;3.55;;;11.40;90.20;;;;;;5134413;28;20016;-75
2022/12/24 01:56:52;;;;;;;22.77;3.67;;;11.40;90.40;;;;;;5135277;28;20034;-74
2022/12/24 01:59:20;;;;;;;12.70;3.08;;;11.40;90.60;;;;;;5134311;28;20039;-74
2022/12/24 02:01:48;;;;;;;18.50;3.70;;;11.40;90.50;;;;;;5117087;28;20023;-74
2022/12/24 02:04:35;;;;;;;19.73;3.72;;;11.40;90.50;;;;;;5134055;28;20019;-74
2022/12/24 02:07:01;;;;;;;14.80;3.08;;;11.40;90.50;;;;;;5133973;28;20027;-74
2022/12/24 02:09:27;;;;;;;11.85;2.90;;;11.30;90.70;;;;;;5134072;28;20073;-74
2022/12/24 02:11:53;;;;;;;16.25;3.63;;;11.30;90.60;;;;;;5134033;28;20055;-74
2022/12/24 02:14:19;;;;;;;14.52;3.40;;;11.30;90.70;;;;;;5133855;28;20022;-75
2022/12/24 02:16:58;;;;;;;23.13;4.32;;;11.30;90.60;;;;;;5134606;28;20048;-74
2022/12/24 02:19:54;;;;;;;22.15;4.15;;;11.20;90.80;;;;;;5134845;28;20046;-74
2022/12/24 02:22:59;;;;;;;22.15;3.90;;;11.20;90.90;;;;;;5133832;28;20030;-74
2022/12/24 02:25:58;;;;;;;15.98;3.58;;;11.20;91.10;;;;;;5133708;28;20050;-74
2022/12/24 02:28:45;;;;;;;21.45;4.13;;;11.10;91.10;;;;;;5133729;28;20062;-74
2022/12/24 02:31:19;;;;;;;23.23;3.83;;;11.20;91.20;;;;;;5133593;28;20386;-74
2022/12/24 02:34:34;;;;;;;16.02;3.75;;;11.20;91.20;;;;;;5133641;28;20507;-74
2022/12/24 02:37:02;;;;;;;19.40;3.50;;;11.10;91.20;;;;;;5052032;28;20091;-74
2022/12/24 02:39:38;;;;;;;16.27;3.92;;;11.20;91.40;;;;;;5118763;28;20046;-74
2022/12/24 02:42:07;;;;;;;16.35;4.28;;;11.20;91.30;;;;;;5133532;28;20019;-74
2022/12/24 02:45:08;;;;;;;22.02;3.40;;;11.20;91.40;;;;;;5133373;28;20023;-74
2022/12/24 02:47:35;;;;;;;17.05;3.50;;;11.20;91.50;;;;;;5111638;28;20031;-74
2022/12/24 02:50:02;;;;;;;18.27;4.03;;;11.20;91.60;;;;;;5116504;28;20032;-74
2022/12/24 02:52:31;;;;;;;18.83;4.07;;;11.20;91.70;;;;;;5134203;28;20035;-74
2022/12/24 02:55:00;;;;;;;22.10;3.97;;;11.20;91.70;;;;;;5134260;28;20050;-74
2022/12/24 02:57:40;;;;;;;23.48;4.20;;;11.20;91.70;;;;;;5134191;28;20016;-74
2022/12/24 03:00:13;;;;;;;21.27;3.92;;;11.30;91.70;;;;;;5134184;28;20023;-74
2022/12/24 03:03:06;;;;;;;22.33;4.50;;;11.30;91.80;;;;;;5133218;28;20055;-74
2022/12/24 03:05:44;;;;;;;17.75;3.70;;;11.20;91.90;;;;;;5134163;28;20019;-74
2022/12/24 03:08:17;;;;;;;21.00;4.05;;;11.20;92.00;;;;;;5134003;28;20055;-74
2022/12/24 03:10:54;;;;;;;20.35;3.30;;;11.20;92.20;;;;;;5132676;28;20020;-74
2022/12/24 03:13:21;;;;;;;16.02;3.47;;;11.20;92.20;;;;;;5133115;28;20027;-74
2022/12/24 03:15:48;;;;;;;14.48;3.95;;;11.20;92.20;;;;;;5132907;28;20028;-76
2022/12/24 03:18:18;;;;;;;12.45;3.17;;;11.20;92.20;;;;;;5132949;28;20020;-74
2022/12/24 03:20:59;;;;;;;24.35;3.60;;;11.20;92.20;;;;;;5133942;28;20079;-75
2022/12/24 03:23:25;;;;;;;21.35;3.50;;;11.20;92.20;;;;;;5132925;28;20026;-74
2022/12/24 03:25:51;;;;;;;20.77;3.80;;;11.20;92.30;;;;;;5115907;28;20092;-74
2022/12/24 03:28:18;;;;;;;11.45;2.72;;;11.20;92.30;;;;;;5133037;28;20027;-74
2022/12/24 03:30:47;;;;;;;20.65;4.57;;;11.10;92.40;;;;;;5133772;28;20024;-74
2022/12/24 03:33:14;;;;;;;23.50;4.07;;;11.10;92.50;;;;;;5133827;28;20076;-74
2022/12/24 03:35:40;;;;;;;22.38;4.28;;;11.10;92.60;;;;;;5133771;28;20023;-74
2022/12/24 03:38:06;;;;;;;19.50;3.33;;;11.10;92.70;;;;;;5133781;28;20027;-74
2022/12/24 03:40:31;;;;;;;17.85;4.05;;;11.10;92.70;;;;;;5132832;28;20020;-74
2022/12/24 03:42:57;;;;;;;25.23;3.67;;;11.10;92.80;;;;;;5115767;28;20065;-74
2022/12/24 03:45:24;;;;;;;22.10;3.90;;;11.10;92.80;;;;;;5132683;28;20032;-74
2022/12/24 03:47:49;;;;;;;26.58;3.90;;;11.10;92.80;;;;;;5133812;28;20032;-74
2022/12/24 03:50:15;;;;;;;18.00;3.20;;;11.10;92.80;;;;;;5133784;28;20032;-74
2022/12/24 03:52:41;;;;;;;16.42;3.55;;;11.10;92.80;;;;;;5133586;28;20028;-74
2022/12/24 03:55:07;;;;;;;13.80;3.13;;;11.20;92.90;;;;;;5133605;28;20023;-74
2022/12/24 03:57:32;;;;;;;19.65;2.83;;;11.20;92.80;;;;;;5132609;28;20023;-74
2022/12/24 03:59:59;;;;;;;23.60;3.55;;;11.20;92.80;;;;;;5132628;28;20038;-74
2022/12/24 04:02:25;;;;;;;22.20;3.30;;;11.30;92.90;;;;;;5098811;28;20020;-74
2022/12/24 04:04:50;;;;;;;17.00;3.15;;;11.20;92.90;;;;;;5115512;28;20028;-74
2022/12/24 04:07:16;;;;;;;19.10;3.88;;;11.20;92.90;;;;;;5132613;28;20031;-74
2022/12/24 04:09:41;;;;;;;23.65;3.90;;;11.30;92.90;;;;;;5133392;28;20035;-75
2022/12/24 04:12:07;;;;;;;15.13;3.15;;;11.20;92.90;;;;;;5098499;28;20034;-74
2022/12/24 04:14:33;;;;;;;24.10;3.95;;;11.20;93.00;;;;;;5132391;28;20126;-74
2022/12/24 04:16:58;;;;;;;22.90;3.95;;;11.20;93.00;;;;;;5132229;28;20071;-74
2022/12/24 04:19:24;;;;;;;16.10;3.47;;;11.30;93.00;;;;;;5115461;28;20028;-74
2022/12/24 04:21:49;;;;;;;22.15;3.75;;;11.20;93.10;;;;;;5115699;28;20028;-74
2022/12/24 04:24:15;;;;;;;19.23;4.97;;;11.30;93.10;;;;;;5136150;28;20031;-74
2022/12/24 04:26:41;;;;;;;22.35;4.50;;;11.20;93.10;;;;;;5136042;28;20038;-74
2022/12/24 04:29:06;;;;;;;19.58;3.63;;;11.20;93.20;;;;;;5136999;28;20032;-74
2022/12/24 04:31:32;;;;;;;19.98;4.03;;;11.30;93.20;;;;;;5135946;28;20051;-74
2022/12/24 04:33:58;;;;;;;15.25;3.33;;;11.30;93.20;;;;;;5135881;28;20027;-74
2022/12/24 04:36:23;;;;;;;15.57;3.92;;;11.30;93.20;;;;;;5135935;28;20083;-75
2022/12/24 04:38:49;;;;;;;16.20;3.78;;;11.30;93.30;;;;;;5136813;28;20043;-74
2022/12/24 04:41:19;;;;;;;16.05;4.18;;;11.30;93.30;;;;;;5101927;28;20061;-74
2022/12/24 04:43:45;;;;;;;14.50;3.90;;;11.30;93.30;;;;;;5136755;28;20027;-74
2022/12/24 04:46:19;;;;;;;19.02;3.92;;;11.30;93.30;;;;;;5135680;28;20023;-74
2022/12/24 04:48:48;;;;;;;13.63;3.60;;;11.30;93.40;;;;;;5136690;28;20042;-74
2022/12/24 04:51:15;;;;;;;16.08;4.13;;;11.30;93.40;;;;;;5135615;28;20020;-74
2022/12/24 04:53:41;;;;;;;13.65;3.90;;;11.30;93.40;;;;;;5135631;28;20024;-74
2022/12/24 04:56:16;;;;;;;22.42;4.03;;;11.40;93.40;;;;;;5135486;28;20016;-74
2022/12/24 04:58:42;;;;;;;18.20;4.78;;;11.30;93.50;;;;;;5135416;28;20011;-74
2022/12/24 05:01:16;;;;;;;18.25;4.07;;;11.30;93.40;;;;;;5135496;28;20031;-74
2022/12/24 05:03:42;;;;;;;11.43;3.95;;;11.30;93.40;;;;;;5136380;28;20023;-74
2022/12/24 05:06:10;;;;;;;21.65;4.47;;;11.30;93.50;;;;;;5118383;28;20028;-74
2022/12/24 05:08:36;;;;;;;19.60;4.10;;;11.30;93.50;;;;;;5136168;28;20030;-74
2022/12/24 05:11:02;;;;;;;20.73;3.72;;;11.30;93.60;;;;;;5135206;28;20047;-74
2022/12/24 05:13:29;;;;;;;14.25;3.47;;;11.30;93.60;;;;;;5135225;28;20051;-74
2022/12/24 05:15:54;;;;;;;14.98;3.90;;;11.30;93.70;;;;;;5135931;28;20024;-75
2022/12/24 05:18:21;;;;;;;17.27;3.65;;;11.30;93.70;;;;;;5136098;28;20193;-74
2022/12/24 05:20:47;;;;;;;22.20;4.13;;;11.30;93.70;;;;;;5117977;28;20020;-74
2022/12/24 05:26:23;;;;;;;20.25;4.03;;;11.30;93.70;;;;;;5136220;28;20060;-74
2022/12/24 05:28:50;;;;;;;18.70;4.55;;;11.30;93.70;;;;;;5135918;28;20023;-74
2022/12/24 05:31:16;;;;;;;20.70;4.15;;;11.30;93.70;;;;;;5135752;28;20011;-74
2022/12/24 05:33:42;;;;;;;14.90;3.30;;;11.20;93.70;;;;;;5135526;28;20405;-74
2022/12/24 05:36:08;;;;;;;15.25;3.63;;;11.30;93.70;;;;;;5134712;28;20015;-74
2022/12/24 05:38:34;;;;;;;26.25;4.22;;;11.30;93.70;;;;;;5134737;28;20092;-74
2022/12/24 05:41:00;;;;;;;17.40;4.18;;;11.30;93.70;;;;;;5134563;28;20020;-74
2022/12/24 05:43:25;;;;;;;14.25;3.70;;;11.30;93.70;;;;;;5134675;28;20032;-74
2022/12/24 05:45:51;;;;;;;18.92;3.88;;;11.30;93.70;;;;;;5117489;28;20023;-74
2022/12/24 05:48:16;;;;;;;14.95;3.65;;;11.30;93.60;;;;;;5100578;28;20382;-74
2022/12/24 05:50:42;;;;;;;23.80;4.68;;;11.30;93.70;;;;;;5135353;28;20020;-73
2022/12/24 05:53:08;;;;;;;16.60;3.65;;;11.30;93.70;;;;;;5134376;28;20397;-74
2022/12/24 05:55:34;;;;;;;19.27;4.22;;;11.30;93.70;;;;;;5100410;28;20039;-74
2022/12/24 05:57:59;;;;;;;21.15;4.40;;;11.30;93.90;;;;;;5134351;28;20023;-73
2022/12/24 06:00:25;;;;;;;20.73;3.80;;;11.20;93.90;;;;;;5134283;28;20058;-74
2022/12/24 06:02:51;;;;;;;17.05;3.85;;;11.20;93.90;;;;;;5134327;28;20032;-74
2022/12/24 06:05:16;;;;;;;16.95;3.42;;;11.20;93.90;;;;;;5100249;28;20044;-74
2022/12/24 06:07:42;;;;;;;12.15;3.10;;;11.20;93.90;;;;;;5100086;28;20115;-74
2022/12/24 06:10:08;;;;;;;18.35;3.30;;;11.20;94.00;;;;;;5134068;28;20038;-74
2022/12/24 06:12:34;;;;;;;14.52;3.13;;;11.10;94.00;;;;;;5134865;28;20056;-74
2022/12/24 06:15:00;;;;;;;14.85;2.38;;;11.10;94.00;;;;;;5134054;28;20047;-74
2022/12/24 06:17:25;;;;;;;13.95;3.22;;;11.10;94.00;;;;;;5099876;28;20073;-74
2022/12/24 06:19:51;;;;;;;20.23;3.60;;;11.20;94.00;;;;;;5133932;28;20023;-74
2022/12/24 06:22:17;;;;;;;15.98;3.25;;;11.20;93.90;;;;;;5116803;28;20032;-74
2022/12/24 06:24:42;;;;;;;16.67;3.30;;;11.20;93.90;;;;;;5133894;28;20024;-74
2022/12/24 06:27:08;;;;;;;19.40;3.63;;;11.20;93.80;;;;;;5133707;28;20085;-74
2022/12/24 06:29:33;;;;;;;17.02;3.40;;;11.20;93.70;;;;;;5116747;28;20114;-74
2022/12/24 06:31:59;;;;;;;24.83;3.70;;;11.20;93.60;;;;;;5134554;28;20119;-74
2022/12/24 06:34:25;;;;;;;17.48;3.92;;;11.20;93.50;;;;;;5133613;28;20039;-74
2022/12/24 06:36:51;;;;;;;14.15;3.20;;;11.20;93.50;;;;;;5133653;28;20024;-74
2022/12/24 06:39:16;;;;;;;15.05;3.22;;;11.20;93.50;;;;;;5134514;28;20027;-74
2022/12/24 06:41:42;;;;;;;24.13;4.07;;;11.20;93.60;;;;;;5133567;28;20028;-74
2022/12/24 06:44:08;;;;;;;15.13;3.30;;;11.20;93.50;;;;;;5134360;28;20036;-74
2022/12/24 06:46:34;;;;;;;12.52;3.40;;;11.20;93.50;;;;;;5132986;28;20020;-75
2022/12/24 06:48:59;;;;;;;17.25;3.25;;;11.20;93.70;;;;;;5133398;28;20150;-74
2022/12/24 06:51:25;;;;;;;14.43;3.40;;;11.20;93.70;;;;;;5116214;28;20028;-74
2022/12/24 06:53:51;;;;;;;20.13;3.75;;;11.20;93.70;;;;;;5133325;28;20034;-74
2022/12/24 06:56:18;;;;;;;16.83;3.80;;;11.20;93.70;;;;;;5133183;28;20024;-74
2022/12/24 06:58:44;;;;;;;22.92;5.05;;;11.20;93.60;;;;;;5134207;28;20028;-74
2022/12/24 07:01:12;;;;;;;28.25;4.72;;;11.20;93.60;;;;;;5116198;28;20028;-74
2022/12/24 07:03:39;;;;;;;19.23;3.60;;;11.20;93.70;;;;;;5133185;28;20101;-74
2022/12/24 07:06:05;;;;;;;22.92;4.07;;;11.20;93.50;;;;;;5133283;28;20038;-74
2022/12/24 07:08:32;;;;;;;19.33;4.05;;;11.20;93.40;;;;;;5134017;28;20034;-74
2022/12/24 07:10:59;;;;;;;19.95;4.05;;;11.20;93.30;;;;;;5133966;28;20047;-74
2022/12/24 07:13:24;;;;;;;12.43;3.65;;;11.20;93.20;;;;;;5134064;28;20039;-74
2022/12/24 07:16:01;;;;;;;16.63;3.42;;;11.20;93.10;;;;;;5133884;28;20039;-75
2022/12/24 07:18:27;;;;;;;17.48;3.83;;;11.20;92.90;;;;;;5133760;28;20036;-74
2022/12/24 07:20:53;;;;;;;15.75;3.70;;;11.20;92.80;;;;;;5132973;28;20019;-74
2022/12/24 07:23:19;;;;;;;15.27;4.25;;;11.30;92.70;;;;;;5133880;28;20049;-74
2022/12/24 07:25:45;;;;;;;21.55;5.07;;;11.30;92.80;;;;;;5133876;28;20032;-74
2022/12/24 07:28:10;;;;;;;13.70;3.25;;;11.20;92.60;;;;;;5132967;28;20160;-73
2022/12/24 07:30:36;;;;;;;21.40;3.78;;;11.20;92.60;;;;;;5115919;28;20034;-74
2022/12/24 07:33:02;;;;;;;17.88;5.20;;;11.20;92.50;;;;;;5132832;28;20091;-74
2022/12/24 07:35:27;;;;;;;14.18;3.65;;;11.20;92.40;;;;;;5133018;28;20047;-74
2022/12/24 07:37:53;;;;;;;23.45;3.88;;;11.20;92.40;;;;;;5115951;28;20053;-74
2022/12/24 07:40:19;;;;;;;18.33;3.70;;;11.20;92.30;;;;;;5115753;28;20019;-74
2022/12/24 07:42:44;;;;;;;23.70;4.78;;;11.10;92.40;;;;;;5132700;28;20038;-74
2022/12/24 07:45:10;;;;;;;21.10;3.55;;;11.10;92.40;;;;;;5132793;28;20064;-74
2022/12/24 07:47:35;;;;;;;10.35;2.80;;;11.10;92.50;;;;;;5133668;28;20088;-74
2022/12/24 07:50:03;;;;;;;17.48;4.18;;;11.10;92.40;;;;;;5133702;28;20059;-74
2022/12/24 07:52:28;;;;;;;16.27;3.80;;;11.10;92.40;;;;;;5132648;28;20042;-74
2022/12/24 07:54:54;;;;;;;19.02;3.50;;;11.10;92.40;;;;;;5132698;28;20024;-74
2022/12/24 07:57:20;;;;;;;17.40;3.92;;;11.10;92.40;;;;;;5116745;28;20062;-74
2022/12/24 07:59:46;;;;;;;18.83;3.45;;;11.10;92.40;;;;;;5119561;28;20024;-74
2022/12/24 08:02:12;;;;;;;19.90;4.32;;;11.10;92.30;;;;;;5102594;28;20032;-74
2022/12/24 08:04:37;;;;;;;13.80;3.50;;;11.10;92.40;;;;;;5137484;28;20185;-74
2022/12/24 08:07:04;;;;;;;16.80;4.00;;;11.10;92.40;;;;;;5119424;28;20028;-74
2022/12/24 08:09:34;;;;;;;24.30;4.25;;;11.10;92.30;;;;;;5119251;28;20032;-74
2022/12/24 08:12:01;;;;;;;17.77;4.15;;;11.10;92.30;;;;;;5137338;28;20016;-74
2022/12/24 08:14:30;;;;;;;21.38;4.22;;;11.10;92.30;;;;;;5136462;28;20023;-74
2022/12/24 08:16:56;;;;;;;17.50;4.50;;;11.10;92.40;;;;;;5119460;28;20047;-74
2022/12/24 08:19:21;;;;;;;11.73;3.38;;;11.10;92.40;;;;;;5136210;28;20028;-74
2022/12/24 08:21:47;;;;;;;16.52;4.15;;;11.10;92.50;;;;;;5119111;28;20028;-74
2022/12/24 08:24:13;;;;;;;22.77;4.50;;;11.10;92.50;;;;;;5137118;28;20025;-74
2022/12/24 08:26:38;;;;;;;17.42;3.58;;;11.10;92.50;;;;;;5119082;28;20039;-74
2022/12/24 08:29:05;;;;;;;24.08;5.35;;;11.10;92.50;;;;;;5137024;28;20035;-74
2022/12/24 08:31:35;;;;;;;13.23;3.60;;;11.10;92.60;;;;;;5136942;28;20024;-74
2022/12/24 08:34:02;;;;;;;27.15;4.78;;;11.10;92.60;;;;;;5136052;28;20016;-74
2022/12/24 08:36:27;;;;;;;19.50;5.18;;;11.10;92.70;;;;;;5135949;28;20024;-75
2022/12/24 08:38:53;;;;;;;11.10;3.50;;;11.10;92.70;;;;;;5101990;28;20027;-75
2022/12/24 08:41:19;;;;;;;11.63;3.45;;;11.10;92.70;;;;;;5135872;28;20031;-74
2022/12/24 08:43:44;;;;;;;18.88;3.30;;;11.10;92.70;;;;;;5118758;28;20016;-75
2022/12/24 08:46:10;;;;;;;20.70;3.28;;;11.10;92.70;;;;;;5118658;28;20119;-74
2022/12/24 08:48:35;;;;;;;14.57;3.78;;;11.10;92.70;;;;;;5135792;28;20028;-74
2022/12/24 08:51:07;;;;;;;19.67;4.90;;;11.10;92.70;;;;;;5101587;28;20036;-74
2022/12/24 08:53:32;;;;;;;18.55;3.85;;;11.10;92.70;;;;;;5136635;28;20016;-75
2022/12/24 08:56:06;;;;;;;18.25;3.53;;;11.10;92.70;;;;;;5118709;28;20031;-74
2022/12/24 08:58:32;;;;;;;18.50;4.18;;;11.10;92.70;;;;;;5136517;28;20053;-75
2022/12/24 09:00:58;;;;;;;17.92;3.95;;;11.20;92.70;;;;;;5135534;28;20023;-75
2022/12/24 09:03:24;;;;;;;18.45;4.25;;;11.20;92.60;;;;;;5136403;28;20020;-74
2022/12/24 09:05:49;;;;;;;15.23;3.45;;;11.30;92.60;;;;;;5135386;28;20030;-75
2022/12/24 09:08:15;;;;;;;21.38;3.92;;;11.20;92.60;;;;;;5134729;28;20028;-75
2022/12/24 09:10:41;;;;;;;25.67;4.15;;;11.20;92.60;;;;;;5135163;28;20020;-75
2022/12/24 09:13:06;;;;;;;14.75;3.58;;;11.20;92.60;;;;;;5136106;28;20057;-74
2022/12/24 09:15:32;;;;;;;19.83;3.67;;;11.20;92.70;;;;;;5118310;28;20055;-74
2022/12/24 09:17:58;;;;;;;17.02;3.72;;;11.30;92.70;;;;;;5117935;28;20055;-74
2022/12/24 09:20:23;;;;;;;26.83;4.32;;;11.30;92.60;;;;;;5117990;28;20042;-75
2022/12/24 09:22:49;;;;;;;21.60;3.97;;;11.30;92.60;;;;;;5118085;28;20023;-74
2022/12/24 09:25:14;;;;;;;10.43;3.03;;;11.40;92.60;;;;;;5101069;28;20043;-75
2022/12/24 09:27:40;;;;;;;13.98;3.50;;;11.60;92.50;;;;;;5100998;28;20020;-75
2022/12/24 09:30:08;;;;;;;27.20;4.47;;;11.70;92.00;;;;;;5134876;28;20103;-74
2022/12/24 09:32:34;;;;;;;17.10;3.80;;;11.80;91.90;;;;;;5117628;28;20031;-74
2022/12/24 09:34:59;;;;;;;15.52;3.53;;;12.00;91.80;;;;;;5134752;28;20034;-74
2022/12/24 09:37:25;;;;;;;16.13;4.00;;;12.30;91.30;;;;;;5134810;28;20019;-75
2022/12/24 09:39:51;;;;;;;19.92;4.13;;;12.60;90.70;;;;;;5134634;28;20394;-74
2022/12/24 09:42:52;;;;;;;18.45;4.28;;;12.50;90.50;;;;;;5100733;28;20028;-74
2022/12/24 09:45:27;;;;;;;17.58;4.03;;;12.30;90.40;;;;;;5112942;28;20043;-74
2022/12/24 09:47:57;;;;;;;24.38;4.55;;;12.10;91.00;;;;;;5134521;28;20015;-75
2022/12/24 09:50:34;;;;;;;17.67;4.13;;;12.00;91.20;;;;;;5134517;28;20019;-74
2022/12/24 09:53:04;;;;;;;15.05;4.22;;;11.90;91.30;;;;;;5134426;28;20028;-74
2022/12/24 09:55:36;;;;;;;18.27;4.38;;;11.80;91.50;;;;;;5134491;28;20038;-74
2022/12/24 09:58:05;;;;;;;17.17;4.15;;;11.80;91.80;;;;;;5135426;28;20016;-74
2022/12/24 10:00:36;;;;;;;18.30;3.70;;;11.80;91.90;;;;;;5135251;28;20056;-74
2022/12/24 10:03:13;;;;;;;20.65;5.03;;;11.90;92.10;;;;;;5117131;28;20035;-74
2022/12/24 10:06:13;;;;;;;18.17;5.10;;;12.20;91.70;;;;;;5134207;28;20095;-74
2022/12/24 10:09:17;;;;;;;19.63;4.88;;;12.20;91.40;;;;;;5135166;28;20031;-74
2022/12/24 10:12:02;;;;;;;21.33;4.30;;;12.40;91.40;;;;;;5134315;28;20042;-74
2022/12/24 10:14:41;;;;;;;19.75;4.50;;;12.20;91.00;;;;;;5134018;28;20040;-74
2022/12/24 10:17:40;;;;;;;24.00;4.35;;;12.10;91.40;;;;;;5133829;28;20044;-74
2022/12/24 10:20:31;;;;;;;19.40;4.65;;;12.10;91.40;;;;;;5099077;28;20046;-74
2022/12/24 10:23:20;;;;;;;24.40;5.18;;;12.00;91.60;;;;;;5133826;28;20436;-74
2022/12/24 10:26:11;;;;;;;22.33;4.78;;;12.00;91.70;;;;;;5086735;28;20039;-74
2022/12/24 10:28:53;;;;;;;21.27;4.72;;;12.00;91.80;;;;;;5133618;28;20023;-75
2022/12/24 10:31:27;;;;;;;21.25;5.60;;;12.00;91.90;;;;;;5134657;28;20012;-75
2022/12/24 10:34:00;;;;;;;18.63;4.32;;;12.00;91.90;;;;;;5134699;28;20024;-74
2022/12/24 10:36:30;;;;;;;18.08;4.47;;;12.00;91.70;;;;;;5134670;28;20456;-73
2022/12/24 10:38:57;;;;;;;19.67;3.72;;;12.00;91.80;;;;;;5134700;28;20027;-73
2022/12/24 10:41:26;;;;;;;18.83;4.45;;;12.00;91.70;;;;;;5116514;28;20027;-73
2022/12/24 10:43:53;;;;;;;18.17;3.90;;;12.00;91.90;;;;;;5133432;28;20111;-73
2022/12/24 10:46:29;;;;;;;24.65;4.75;;;12.00;91.80;;;;;;5133395;28;20107;-73
2022/12/24 10:49:02;;;;;;;20.80;4.13;;;12.00;91.50;;;;;;5133406;28;20024;-74
2022/12/24 10:51:42;;;;;;;27.60;5.07;;;12.00;91.80;;;;;;5134343;28;20077;-73
2022/12/24 10:54:16;;;;;;;21.15;4.50;;;12.00;91.70;;;;;;5133319;28;20031;-73
2022/12/24 10:56:46;;;;;;;22.05;4.45;;;12.00;91.70;;;;;;5133305;28;20088;-74
2022/12/24 10:59:50;;;;;;;14.57;4.38;;;12.00;91.70;;;;;;5133281;28;20041;-74
2022/12/24 11:02:33;;;;;;;16.77;4.28;;;12.00;91.60;;;;;;5128284;28;20040;-74
2022/12/24 11:05:00;;;;;;;21.52;4.32;;;12.00;91.80;;;;;;5133265;28;20518;-73
2022/12/24 11:07:27;;;;;;;17.83;4.90;;;11.90;91.80;;;;;;5133158;28;20023;-73
2022/12/24 11:10:02;;;;;;;16.90;4.18;;;12.00;92.00;;;;;;5133047;28;20031;-73
2022/12/24 11:12:38;;;;;;;14.50;5.22;;;12.10;91.90;;;;;;5133066;28;20024;-73
2022/12/24 11:15:16;;;;;;;25.27;4.93;;;12.10;91.70;;;;;;5133046;28;20087;-73
2022/12/24 11:17:51;;;;;;;25.23;4.75;;;12.10;91.40;;;;;;5132890;28;20398;-73
2022/12/24 11:20:23;;;;;;;14.20;3.78;;;12.10;91.40;;;;;;5133024;28;20019;-74
2022/12/24 11:22:49;;;;;;;21.23;3.83;;;12.10;91.50;;;;;;5134067;28;20059;-76
2022/12/24 11:25:21;;;;;;;16.38;4.25;;;12.10;91.40;;;;;;5115897;28;20031;-74
2022/12/24 11:27:50;;;;;;;18.15;5.05;;;12.10;91.20;;;;;;5132975;28;20031;-73
2022/12/24 11:30:15;;;;;;;17.35;4.35;;;12.10;91.10;;;;;;5116045;28;20030;-74
2022/12/24 11:32:42;;;;;;;25.30;6.38;;;12.20;91.20;;;;;;5137522;28;20079;-73
2022/12/24 11:35:17;;;;;;;24.10;5.38;;;12.20;90.90;;;;;;5138263;28;20027;-73
2022/12/24 11:37:43;;;;;;;19.92;6.38;;;12.20;90.90;;;;;;5137081;28;20432;-73
2022/12/24 11:40:25;;;;;;;25.83;6.13;;;12.20;90.90;;;;;;5137064;28;20036;-73
2022/12/24 11:42:57;;;;;;;21.48;7.22;;;12.30;90.80;;;;;;5120276;28;20035;-75
2022/12/24 11:45:27;;;;;;;18.38;5.15;;;12.20;90.70;;;;;;5137946;28;20450;-74
2022/12/24 11:47:53;;;;;;;15.13;3.85;;;12.20;90.40;;;;;;5136783;28;20034;-74
2022/12/24 11:50:34;;;;;;;20.65;6.03;;;12.20;90.50;;;;;;5136761;28;20034;-74
2022/12/24 11:53:03;;;;;;;19.55;6.82;;;12.30;90.60;;;;;;5137894;28;20028;-74
2022/12/24 11:55:48;;;;;;;22.70;6.78;;;12.30;90.50;;;;;;5136766;28;20047;-75
2022/12/24 11:58:37;;;;;;;16.95;5.25;;;12.30;90.50;;;;;;5136672;28;20049;-75
2022/12/24 12:01:37;;;;;;;19.60;5.95;;;12.30;90.30;;;;;;5136616;28;20024;-75
2022/12/24 12:04:11;;;;;;;16.23;4.88;;;12.30;89.90;;;;;;5136503;28;20031;-74
2022/12/24 12:06:39;;;;;;;15.45;3.53;;;12.20;90.10;;;;;;5137590;28;20028;-75
2022/12/24 12:09:19;;;;;;;14.95;3.60;;;12.20;89.10;;;;;;5136436;28;20020;-75
2022/12/24 12:11:51;;;;;;;16.85;3.95;;;12.20;87.80;;;;;;5136320;28;20038;-74
2022/12/24 12:14:33;;;;;;;19.77;4.38;;;12.20;88.00;;;;;;5137445;28;20474;-75
2022/12/24 12:17:39;;;;;;;14.20;4.10;;;12.10;89.00;;;;;;5136180;28;20074;-75
2022/12/24 12:20:20;;;;;;;16.52;3.67;;;12.10;87.50;;;;;;5137201;28;20049;-75
2022/12/24 12:23:12;;;;;;;14.98;4.93;;;12.10;88.10;;;;;;5136156;28;20027;-75
2022/12/24 12:26:06;;;;;;;14.43;4.47;;;12.20;88.80;;;;;;5137230;28;20020;-75
2022/12/24 12:28:39;;;;;;;13.93;4.47;;;12.20;88.60;;;;;;5136189;28;20020;-74
2022/12/24 12:31:08;;;;;;;11.10;4.22;;;12.20;88.60;;;;;;5136127;28;20123;-74
2022/12/24 12:33:40;;;;;;;22.00;5.32;;;12.20;88.00;;;;;;5135926;28;20035;-74
2022/12/24 12:36:09;;;;;;;22.23;9.80;;;12.20;88.20;;;;;;5136027;28;20374;-75
2022/12/24 12:38:34;;;;;;;21.02;6.03;;;12.30;88.20;;;;;;5135906;28;20020;-74
2022/12/24 12:41:03;;;;;;;15.57;4.25;;;12.30;88.40;;;;;;5118808;28;20062;-74
2022/12/24 12:43:49;;;;;;;20.42;6.28;;;12.30;88.80;;;;;;5135822;28;20030;-75
2022/12/24 12:46:27;;;;;;;23.70;6.35;;;12.40;89.20;;;;;;5135749;28;20030;-74
2022/12/24 12:49:14;;;;;;;25.15;5.60;;;12.50;89.30;;;;;;5135743;28;20019;-75
2022/12/24 12:51:59;;;;;;;19.92;5.55;;;12.50;89.30;;;;;;5135572;28;20041;-74
2022/12/24 12:54:46;;;;;;;24.83;4.95;;;12.50;89.20;;;;;;5135610;28;20023;-75
2022/12/24 12:57:16;;;;;;;15.90;4.63;;;12.50;89.40;;;;;;5135506;28;20123;-75